Time;durP1;ratioP1;P1;durP2;ratioP2;P2;SDS_P1;SDS_P2;PMS_P1;PMS_P2;Temp;Humidity;BMP_temperature;BMP_pressure;BME280_temperature;BME280_humidity;BME280_pressure;Samples;Min_cycle;Max_cycle;Signal;HPM_P1;HPM_P2
2022/01/08 00:00:56;;;;;;;4.73;1.77;;;1.50;99.90;;;;;;5031999;28;20191;-67
2022/01/08 00:03:22;;;;;;;1.80;1.70;;;1.50;99.90;;;;;;5032072;28;20174;-67
2022/01/08 00:05:48;;;;;;;1.40;1.30;;;1.50;99.90;;;;;;5031733;28;20654;-67
2022/01/08 00:08:14;;;;;;;2.20;1.00;;;1.50;99.90;;;;;;5031904;28;20190;-67
2022/01/08 00:10:40;;;;;;;6.03;1.77;;;1.60;99.90;;;;;;5031926;28;20774;-67
2022/01/08 00:13:07;;;;;;;1.37;1.27;;;1.60;99.90;;;;;;5031902;28;20838;-67
2022/01/08 00:15:34;;;;;;;3.33;2.60;;;1.60;99.90;;;;;;5031613;28;20421;-67
2022/01/08 00:18:00;;;;;;;2.60;1.53;;;1.70;99.90;;;;;;5031942;28;20963;-67
2022/01/08 00:20:27;;;;;;;4.10;2.50;;;1.70;99.90;;;;;;5032048;28;20417;-67
2022/01/08 00:22:54;;;;;;;2.23;1.50;;;1.80;99.90;;;;;;5031773;28;20694;-67
2022/01/08 00:25:20;;;;;;;1.53;1.43;;;1.80;99.90;;;;;;5031478;28;20949;-67
2022/01/08 00:27:45;;;;;;;2.97;1.70;;;1.90;99.90;;;;;;5031677;28;20413;-67
2022/01/08 00:30:13;;;;;;;1.63;1.23;;;1.90;99.90;;;;;;5032089;28;20166;-67
2022/01/08 00:32:39;;;;;;;1.50;1.40;;;1.90;99.90;;;;;;5031715;28;20209;-67
2022/01/08 00:35:06;;;;;;;2.03;1.57;;;1.90;99.90;;;;;;5031509;28;20417;-67
2022/01/08 00:37:34;;;;;;;1.80;1.70;;;1.90;99.90;;;;;;5031714;28;20412;-67
2022/01/08 00:40:00;;;;;;;3.40;2.07;;;2.00;99.90;;;;;;5031677;28;20945;-67
2022/01/08 00:42:26;;;;;;;2.30;1.70;;;2.00;99.90;;;;;;5031619;28;20432;-67
2022/01/08 00:44:51;;;;;;;1.90;1.67;;;2.00;99.90;;;;;;5031634;28;20541;-67
2022/01/08 00:47:17;;;;;;;1.63;1.13;;;2.10;99.90;;;;;;5031338;28;20278;-67
2022/01/08 00:49:42;;;;;;;2.70;1.63;;;2.00;99.90;;;;;;5031599;28;20580;-67
2022/01/08 00:52:08;;;;;;;1.90;1.70;;;2.00;99.90;;;;;;5031589;28;20721;-67
2022/01/08 00:54:35;;;;;;;2.97;1.60;;;2.00;99.90;;;;;;5031477;28;20175;-67
2022/01/08 00:57:01;;;;;;;2.53;2.10;;;2.00;99.90;;;;;;5031280;28;20167;-67
2022/01/08 00:59:27;;;;;;;2.80;2.27;;;2.00;99.90;;;;;;5031623;28;20910;-67
2022/01/08 01:01:52;;;;;;;4.30;2.07;;;2.00;99.90;;;;;;5032089;28;20444;-67
2022/01/08 01:04:18;;;;;;;1.93;1.40;;;2.00;99.90;;;;;;5035299;28;20178;-67
2022/01/08 01:06:43;;;;;;;2.00;1.90;;;2.00;99.90;;;;;;5034950;28;20366;-67
2022/01/08 01:09:09;;;;;;;3.10;2.13;;;2.00;99.90;;;;;;5034978;28;20570;-67
2022/01/08 01:11:34;;;;;;;2.40;2.03;;;2.00;99.90;;;;;;5033741;28;20845;-67
2022/01/08 01:14:00;;;;;;;3.67;2.60;;;2.00;99.90;;;;;;5035099;28;20173;-67
2022/01/08 01:16:25;;;;;;;2.47;2.27;;;2.00;99.90;;;;;;5034779;28;20666;-67
2022/01/08 01:18:52;;;;;;;5.80;2.20;;;2.00;99.90;;;;;;5034974;28;20185;-67
2022/01/08 01:21:17;;;;;;;2.73;2.23;;;2.00;99.90;;;;;;5034904;28;20916;-67
2022/01/08 01:23:44;;;;;;;6.13;2.90;;;2.00;99.90;;;;;;5034766;28;20466;-67
2022/01/08 01:26:15;;;;;;;3.03;2.27;;;2.00;99.90;;;;;;5034559;28;20221;-67
2022/01/08 01:29:24;;;;;;;2.27;2.10;;;2.00;99.90;;;;;;5034705;28;20974;-67
2022/01/08 01:47:35;;;;;;;2.30;2.13;;;2.00;99.90;;;;;;5034412;28;20957;-67
2022/01/08 01:50:04;;;;;;;3.40;2.23;;;2.10;99.90;;;;;;5034355;28;20460;-67
2022/01/08 01:52:30;;;;;;;2.00;1.90;;;2.10;99.90;;;;;;5034262;28;20453;-67
2022/01/08 01:54:55;;;;;;;1.80;1.70;;;2.10;99.90;;;;;;5034222;28;20984;-68
2022/01/08 01:57:21;;;;;;;2.40;2.20;;;2.10;99.90;;;;;;5034059;28;20417;-67
2022/01/08 01:59:47;;;;;;;2.43;2.23;;;2.10;99.90;;;;;;5034222;28;20674;-67
2022/01/08 02:02:12;;;;;;;2.50;1.83;;;2.10;99.90;;;;;;5034113;28;20614;-67
2022/01/08 02:04:38;;;;;;;1.50;1.40;;;2.10;99.90;;;;;;5034045;28;20166;-67
2022/01/08 02:07:04;;;;;;;1.87;1.67;;;2.10;99.90;;;;;;5033876;28;20202;-67
2022/01/08 02:09:32;;;;;;;1.70;1.60;;;2.20;99.90;;;;;;5033975;28;20189;-67
2022/01/08 02:11:58;;;;;;;2.30;1.53;;;2.20;99.90;;;;;;5033890;28;20517;-67
2022/01/08 02:14:24;;;;;;;2.83;1.43;;;2.30;99.90;;;;;;5033481;28;20415;-67
2022/01/08 02:16:50;;;;;;;3.30;1.47;;;2.40;99.90;;;;;;5032390;28;20174;-66
2022/01/08 02:19:15;;;;;;;2.10;1.33;;;2.50;99.90;;;;;;5033897;28;20423;-67
2022/01/08 02:21:58;;;;;;;2.00;1.73;;;2.50;99.90;;;;;;5033658;28;20220;-66
2022/01/08 02:24:24;;;;;;;1.77;1.33;;;2.50;99.90;;;;;;5033734;28;20651;-67
2022/01/08 02:26:50;;;;;;;1.47;1.37;;;2.60;99.90;;;;;;5032150;28;20413;-67
2022/01/08 02:29:19;;;;;;;1.50;1.40;;;2.60;99.90;;;;;;5033534;28;21036;-67
2022/01/08 02:32:08;;;;;;;1.87;1.77;;;2.60;99.90;;;;;;5033837;28;20236;-67
2022/01/08 02:34:35;;;;;;;1.40;1.30;;;2.60;99.90;;;;;;5033567;28;20465;-67
2022/01/08 02:37:01;;;;;;;3.90;1.60;;;2.70;99.90;;;;;;5033081;28;20444;-67
2022/01/08 02:39:27;;;;;;;1.33;1.20;;;2.70;99.90;;;;;;5033530;28;20850;-66
2022/01/08 02:41:58;;;;;;;1.53;1.13;;;2.70;99.90;;;;;;5033393;28;20186;-67
2022/01/08 02:44:25;;;;;;;1.77;1.53;;;2.70;99.90;;;;;;5033416;28;20444;-67
2022/01/08 02:46:52;;;;;;;2.20;1.27;;;2.80;99.90;;;;;;5032955;28;20820;-67
2022/01/08 02:49:18;;;;;;;3.20;1.07;;;2.80;99.90;;;;;;5033132;28;20530;-67
2022/01/08 02:51:44;;;;;;;1.57;1.47;;;2.80;99.90;;;;;;5033109;28;20877;-67
2022/01/08 02:54:11;;;;;;;2.73;1.50;;;2.80;99.90;;;;;;5033179;28;20409;-67
2022/01/08 02:56:38;;;;;;;2.00;1.67;;;2.90;99.90;;;;;;5032815;28;20409;-67
2022/01/08 02:59:04;;;;;;;4.50;1.60;;;2.90;99.90;;;;;;5033077;28;20456;-67
2022/01/08 03:01:30;;;;;;;2.43;1.73;;;2.80;99.90;;;;;;5033039;28;20445;-67
2022/01/08 03:03:56;;;;;;;3.13;1.43;;;2.80;99.90;;;;;;5033023;28;20174;-67
2022/01/08 03:06:22;;;;;;;2.20;2.00;;;2.80;99.90;;;;;;5032579;28;20189;-67
2022/01/08 03:08:47;;;;;;;4.60;1.97;;;2.80;99.90;;;;;;5032745;28;20490;-67
2022/01/08 03:11:13;;;;;;;3.43;2.53;;;2.80;99.90;;;;;;5032868;28;20437;-67
2022/01/08 03:13:38;;;;;;;3.40;1.70;;;2.70;99.90;;;;;;5032830;28;20167;-67
2022/01/08 03:16:04;;;;;;;1.63;1.40;;;2.70;99.90;;;;;;5032773;28;20655;-67
2022/01/08 03:18:30;;;;;;;5.53;1.70;;;2.70;99.90;;;;;;5033002;28;20170;-67
2022/01/08 03:21:11;;;;;;;3.10;2.13;;;2.60;99.90;;;;;;5032569;28;20280;-67
2022/01/08 03:23:43;;;;;;;2.87;1.80;;;2.60;99.90;;;;;;5032688;28;20265;-67
2022/01/08 03:26:10;;;;;;;2.23;2.07;;;2.50;99.90;;;;;;5031549;28;20425;-67
2022/01/08 03:28:36;;;;;;;3.07;2.27;;;2.50;99.90;;;;;;5032433;28;20547;-67
2022/01/08 03:31:01;;;;;;;3.47;3.17;;;2.50;99.90;;;;;;5032333;28;20524;-66
2022/01/08 03:33:27;;;;;;;3.07;2.80;;;2.40;99.90;;;;;;5032558;28;20170;-67
2022/01/08 03:35:52;;;;;;;3.77;3.03;;;2.40;99.90;;;;;;5032103;28;20162;-67
2022/01/08 03:38:18;;;;;;;3.47;3.07;;;2.30;99.90;;;;;;5032441;28;20171;-67
2022/01/08 03:40:43;;;;;;;4.03;2.80;;;2.40;99.90;;;;;;5032438;28;20744;-67
2022/01/08 03:43:09;;;;;;;3.63;3.23;;;2.30;99.90;;;;;;5032321;28;20170;-67
2022/01/08 03:45:34;;;;;;;3.47;2.80;;;2.30;99.90;;;;;;5031842;28;20178;-67
2022/01/08 03:50:44;;;;;;;4.53;3.60;;;2.30;99.90;;;;;;5032279;28;20166;-67
2022/01/08 03:53:10;;;;;;;3.17;2.90;;;2.20;99.90;;;;;;5032221;28;20453;-67
2022/01/08 03:55:35;;;;;;;4.50;3.53;;;2.20;99.90;;;;;;5031837;28;20463;-68
2022/01/08 03:58:01;;;;;;;4.00;3.60;;;2.20;99.90;;;;;;5032076;28;20174;-67
2022/01/08 04:00:26;;;;;;;5.03;4.00;;;2.20;99.90;;;;;;5032634;28;20181;-67
2022/01/08 04:02:53;;;;;;;5.30;4.03;;;2.20;99.90;;;;;;5032042;28;20182;-67
2022/01/08 04:05:19;;;;;;;6.33;4.23;;;2.20;99.90;;;;;;5031810;28;20162;-66
2022/01/08 04:07:45;;;;;;;4.87;4.30;;;2.20;99.90;;;;;;5032164;28;20413;-66
2022/01/08 04:10:10;;;;;;;4.30;3.90;;;2.30;99.90;;;;;;5032048;28;20672;-66
2022/01/08 04:12:42;;;;;;;6.77;4.27;;;2.30;99.90;;;;;;5031852;28;20281;-67
2022/01/08 04:15:30;;;;;;;6.73;4.10;;;2.30;99.90;;;;;;5031732;28;20158;-66
2022/01/08 04:17:54;;;;;;;5.57;4.60;;;2.30;99.90;;;;;;5031831;28;20429;-67
2022/01/08 04:20:21;;;;;;;5.00;3.83;;;2.30;99.90;;;;;;5030597;28;20428;-67
2022/01/08 04:22:49;;;;;;;4.00;3.60;;;2.30;99.90;;;;;;5031816;28;20788;-66
2022/01/08 04:25:17;;;;;;;6.80;3.80;;;2.40;99.90;;;;;;5031536;28;20421;-67
2022/01/08 04:27:42;;;;;;;3.70;3.40;;;2.30;99.90;;;;;;5031888;28;20962;-66
2022/01/08 04:30:08;;;;;;;3.77;3.47;;;2.40;99.90;;;;;;5031765;28;20500;-65
2022/01/08 04:32:33;;;;;;;5.67;4.10;;;2.40;99.90;;;;;;5031792;28;20194;-67
2022/01/08 04:34:59;;;;;;;5.70;4.57;;;2.40;99.90;;;;;;5031611;28;20686;-67
2022/01/08 04:37:24;;;;;;;5.77;4.30;;;2.30;99.90;;;;;;5033136;28;20663;-66
2022/01/08 04:39:50;;;;;;;4.20;3.80;;;2.30;99.90;;;;;;5035690;28;20690;-67
2022/01/08 04:42:16;;;;;;;5.60;4.17;;;2.30;99.90;;;;;;5035568;28;20706;-67
2022/01/08 04:44:42;;;;;;;5.07;4.37;;;2.30;99.90;;;;;;5035651;28;20192;-67
2022/01/08 04:47:07;;;;;;;4.17;3.73;;;2.30;99.90;;;;;;5035250;28;20194;-67
2022/01/08 04:49:33;;;;;;;5.00;3.80;;;2.20;99.90;;;;;;5035576;28;20202;-67
2022/01/08 04:51:58;;;;;;;4.73;4.00;;;2.10;99.90;;;;;;5035459;28;20308;-68
2022/01/08 04:54:24;;;;;;;5.93;3.70;;;2.10;99.90;;;;;;5035391;28;20170;-67
2022/01/08 04:56:50;;;;;;;4.70;3.43;;;2.00;99.90;;;;;;5035103;28;20178;-67
2022/01/08 04:59:16;;;;;;;6.07;5.00;;;2.00;99.90;;;;;;5035380;28;20177;-68
2022/01/08 05:01:42;;;;;;;5.17;3.57;;;1.90;99.90;;;;;;5035241;28;20440;-68
2022/01/08 05:04:08;;;;;;;4.20;3.80;;;1.90;99.90;;;;;;5035237;28;20425;-68
2022/01/08 05:06:33;;;;;;;4.70;2.90;;;1.80;99.90;;;;;;5034933;28;20778;-67
2022/01/08 05:08:59;;;;;;;7.03;4.60;;;1.80;99.90;;;;;;5035068;28;20201;-68
2022/01/08 05:11:27;;;;;;;3.40;3.03;;;1.70;99.90;;;;;;5033934;28;20297;-68
2022/01/08 05:13:53;;;;;;;4.57;3.87;;;1.70;99.90;;;;;;5035077;28;20250;-67
2022/01/08 05:16:19;;;;;;;4.27;3.60;;;1.70;99.90;;;;;;5034809;28;20937;-68
2022/01/08 05:18:45;;;;;;;6.40;4.17;;;1.80;99.90;;;;;;5034948;28;20417;-67
2022/01/08 05:21:24;;;;;;;6.47;4.13;;;1.80;99.90;;;;;;5034857;28;20194;-67
2022/01/08 05:23:51;;;;;;;3.13;2.37;;;1.80;99.90;;;;;;5034989;28;20181;-68
2022/01/08 05:26:17;;;;;;;3.67;2.90;;;1.90;99.90;;;;;;5034615;28;20421;-68
2022/01/08 05:28:44;;;;;;;3.87;2.40;;;1.90;99.90;;;;;;5034747;28;20456;-67
2022/01/08 05:31:10;;;;;;;3.73;2.10;;;1.90;99.90;;;;;;5034765;28;20433;-68
2022/01/08 05:33:36;;;;;;;3.90;2.70;;;2.00;99.90;;;;;;5033403;28;20511;-68
2022/01/08 05:36:02;;;;;;;2.73;2.33;;;2.00;99.90;;;;;;5034385;28;20496;-68
2022/01/08 05:38:27;;;;;;;2.73;2.30;;;2.00;99.90;;;;;;5034655;28;20193;-68
2022/01/08 05:40:53;;;;;;;4.60;2.33;;;2.00;99.90;;;;;;5034630;28;20205;-68
2022/01/08 05:43:18;;;;;;;2.50;1.60;;;2.00;99.90;;;;;;5034562;28;20198;-67
2022/01/08 05:45:44;;;;;;;2.40;2.07;;;1.90;99.90;;;;;;5034127;28;20597;-68
2022/01/08 05:48:10;;;;;;;2.80;2.33;;;1.90;99.90;;;;;;5033856;28;20670;-68
2022/01/08 05:50:36;;;;;;;1.67;1.57;;;1.90;99.90;;;;;;5033878;28;20163;-68
2022/01/08 05:53:01;;;;;;;2.60;2.40;;;2.00;99.90;;;;;;5034377;28;20257;-68
2022/01/08 05:55:27;;;;;;;3.03;2.17;;;2.00;99.90;;;;;;5034060;28;20512;-68
2022/01/08 05:57:52;;;;;;;3.30;2.20;;;2.00;99.90;;;;;;5034312;28;20205;-68
2022/01/08 06:00:18;;;;;;;5.70;1.90;;;2.00;99.90;;;;;;5034396;28;20196;-68
2022/01/08 06:02:44;;;;;;;1.40;1.23;;;2.00;99.90;;;;;;5034048;28;20251;-68
2022/01/08 06:05:10;;;;;;;1.57;1.10;;;2.00;99.90;;;;;;5033853;28;20196;-68
2022/01/08 06:07:35;;;;;;;2.73;1.13;;;2.10;99.90;;;;;;5034089;28;20174;-68
2022/01/08 06:10:01;;;;;;;1.60;0.97;;;2.00;99.90;;;;;;5033945;28;20459;-68
2022/01/08 06:12:27;;;;;;;1.80;1.70;;;2.00;99.90;;;;;;5033896;28;20276;-67
2022/01/08 06:14:53;;;;;;;0.90;0.90;;;2.00;99.90;;;;;;5033982;28;20455;-68
2022/01/08 06:17:18;;;;;;;1.10;1.10;;;1.90;99.90;;;;;;5033700;28;20756;-68
2022/01/08 06:19:44;;;;;;;1.00;1.00;;;1.90;99.90;;;;;;5033855;28;20424;-68
2022/01/08 06:22:09;;;;;;;1.07;0.90;;;1.80;99.90;;;;;;5033740;28;20199;-68
2022/01/08 06:24:35;;;;;;;0.77;0.77;;;1.80;99.90;;;;;;5033986;28;20178;-68
2022/01/08 06:27:01;;;;;;;1.93;0.93;;;1.80;99.90;;;;;;5033597;28;20531;-68
2022/01/08 06:29:26;;;;;;;1.13;1.03;;;1.70;99.90;;;;;;5033703;28;20734;-67
2022/01/08 06:31:53;;;;;;;2.20;1.30;;;1.80;99.90;;;;;;5033628;28;20217;-68
2022/01/08 06:34:19;;;;;;;1.20;1.10;;;1.80;99.90;;;;;;5033522;28;20249;-68
2022/01/08 06:36:45;;;;;;;1.10;1.10;;;1.80;99.90;;;;;;5033276;28;20483;-68
2022/01/08 06:39:11;;;;;;;2.67;1.00;;;1.70;99.90;;;;;;5033528;28;20417;-68
2022/01/08 06:41:37;;;;;;;1.50;1.00;;;1.80;99.90;;;;;;5033370;28;20444;-68
2022/01/08 06:44:02;;;;;;;1.33;0.90;;;1.80;99.90;;;;;;5033446;28;20177;-68
2022/01/08 06:46:28;;;;;;;1.17;1.07;;;1.80;99.90;;;;;;5032948;28;20198;-68
2022/01/08 06:48:53;;;;;;;1.53;1.43;;;1.80;99.90;;;;;;5033198;28;20201;-67
2022/01/08 06:51:19;;;;;;;1.77;1.27;;;1.70;99.90;;;;;;5033326;28;20198;-68
2022/01/08 06:53:44;;;;;;;4.63;1.50;;;1.70;99.90;;;;;;5033239;28;20193;-68
2022/01/08 06:56:10;;;;;;;1.50;1.33;;;1.70;99.90;;;;;;5032884;28;20243;-67
2022/01/08 06:58:35;;;;;;;1.50;1.40;;;1.80;99.90;;;;;;5033124;28;20667;-68
2022/01/08 07:01:01;;;;;;;1.97;1.30;;;1.80;99.90;;;;;;5032884;28;20196;-68
2022/01/08 07:03:27;;;;;;;2.83;2.63;;;1.80;99.90;;;;;;5032942;28;20248;-68
2022/01/08 07:05:52;;;;;;;1.70;1.60;;;1.80;99.90;;;;;;5032720;28;20177;-68
2022/01/08 07:08:18;;;;;;;1.83;1.33;;;1.80;99.90;;;;;;5032898;28;20273;-68
2022/01/08 07:10:43;;;;;;;1.40;1.30;;;1.70;99.90;;;;;;5032875;28;20644;-68
2022/01/08 07:13:09;;;;;;;2.20;1.37;;;1.70;99.90;;;;;;5032847;28;20234;-68
2022/01/08 07:15:35;;;;;;;1.83;1.67;;;1.70;99.90;;;;;;5032529;28;20178;-68
2022/01/08 07:18:01;;;;;;;4.30;2.43;;;1.70;99.90;;;;;;5032710;28;20170;-68
2022/01/08 07:20:26;;;;;;;2.13;1.67;;;1.80;99.90;;;;;;5032746;28;20224;-67
2022/01/08 07:22:52;;;;;;;1.47;1.37;;;1.80;99.90;;;;;;5032659;28;20194;-68
2022/01/08 07:25:17;;;;;;;2.10;1.70;;;1.80;99.90;;;;;;5032357;28;20167;-68
2022/01/08 07:27:43;;;;;;;2.13;1.60;;;1.80;99.90;;;;;;5032702;28;20742;-68
2022/01/08 07:30:10;;;;;;;7.13;2.80;;;1.80;99.90;;;;;;5032424;28;20193;-67
2022/01/08 07:32:52;;;;;;;2.80;1.67;;;1.70;99.90;;;;;;5032475;28;20476;-68
2022/01/08 07:35:21;;;;;;;2.97;2.43;;;1.70;99.90;;;;;;5032167;28;20495;-68
2022/01/08 07:37:49;;;;;;;2.93;2.63;;;1.70;99.90;;;;;;5032550;28;20914;-68
2022/01/08 07:40:15;;;;;;;2.93;2.23;;;1.70;99.90;;;;;;5032626;28;20977;-68
2022/01/08 07:42:41;;;;;;;3.00;2.70;;;1.70;99.90;;;;;;5032331;28;20440;-68
2022/01/08 07:45:08;;;;;;;2.90;2.60;;;1.70;99.90;;;;;;5031958;28;20478;-68
2022/01/08 07:47:34;;;;;;;4.40;2.93;;;1.70;99.90;;;;;;5032141;28;20190;-68
2022/01/08 07:50:00;;;;;;;5.53;2.67;;;1.80;99.90;;;;;;5032172;28;20453;-68
2022/01/08 07:52:26;;;;;;;2.93;2.47;;;1.80;99.90;;;;;;5032136;28;20433;-68
2022/01/08 07:54:51;;;;;;;6.93;5.50;;;1.70;99.90;;;;;;5032127;28;20644;-68
2022/01/08 07:57:17;;;;;;;2.80;2.40;;;1.80;99.90;;;;;;5031901;28;20220;-68
2022/01/08 07:59:42;;;;;;;3.40;2.63;;;1.80;99.90;;;;;;5032072;28;20198;-68
2022/01/08 08:02:11;;;;;;;3.37;3.07;;;1.80;99.90;;;;;;5032048;28;20695;-68
2022/01/08 08:04:37;;;;;;;2.77;2.50;;;1.80;99.90;;;;;;5032116;28;20173;-68
2022/01/08 08:07:02;;;;;;;3.93;3.27;;;1.80;99.90;;;;;;5031755;28;20452;-68
2022/01/08 08:09:28;;;;;;;3.90;3.50;;;1.80;99.90;;;;;;5031915;28;20484;-68
2022/01/08 08:11:53;;;;;;;5.80;3.10;;;1.80;99.90;;;;;;5031440;28;20198;-68
2022/01/08 08:14:19;;;;;;;4.07;3.03;;;1.90;99.90;;;;;;5031902;28;20232;-68
2022/01/08 08:16:45;;;;;;;3.87;2.90;;;1.90;99.90;;;;;;5031697;28;20214;-68
2022/01/08 08:19:10;;;;;;;7.13;3.00;;;1.90;99.90;;;;;;5031973;28;20170;-69
2022/01/08 08:21:36;;;;;;;6.90;3.20;;;1.90;99.90;;;;;;5031822;28;20197;-68
2022/01/08 08:24:04;;;;;;;3.30;3.00;;;1.90;99.90;;;;;;5031993;28;20170;-68
2022/01/08 08:26:30;;;;;;;3.57;2.63;;;1.90;99.90;;;;;;5031653;28;20325;-68
2022/01/08 08:28:55;;;;;;;4.13;3.07;;;1.90;99.90;;;;;;5031758;28;20539;-68
2022/01/08 08:31:21;;;;;;;4.33;3.20;;;2.00;99.90;;;;;;5031942;28;20186;-68
2022/01/08 08:33:46;;;;;;;6.50;2.90;;;1.90;99.90;;;;;;5031952;28;20565;-68
2022/01/08 08:36:12;;;;;;;3.43;3.10;;;2.00;99.90;;;;;;5031507;28;20662;-68
2022/01/08 08:38:38;;;;;;;3.07;2.70;;;2.00;99.90;;;;;;5031786;28;20170;-68
2022/01/08 08:41:04;;;;;;;4.60;4.20;;;2.00;99.90;;;;;;5031609;28;20443;-68
2022/01/08 08:43:29;;;;;;;3.77;3.40;;;2.10;99.90;;;;;;5031593;28;20654;-68
2022/01/08 08:45:55;;;;;;;6.90;2.57;;;2.20;99.90;;;;;;5031372;28;20190;-68
2022/01/08 08:48:20;;;;;;;3.77;2.40;;;2.10;99.90;;;;;;5031663;28;20171;-68
2022/01/08 08:50:46;;;;;;;3.83;2.90;;;2.10;99.90;;;;;;5031580;28;20582;-68
2022/01/08 08:53:12;;;;;;;2.60;2.40;;;2.30;99.90;;;;;;5031794;28;20624;-68
2022/01/08 08:55:37;;;;;;;3.20;2.20;;;2.30;99.90;;;;;;5031338;28;20179;-68
2022/01/08 08:58:03;;;;;;;2.77;2.23;;;2.40;99.90;;;;;;5031452;28;20186;-68
2022/01/08 09:00:29;;;;;;;3.20;2.90;;;2.50;99.90;;;;;;5031559;28;20945;-68
2022/01/08 09:02:55;;;;;;;3.27;1.87;;;2.50;99.90;;;;;;5031504;28;20203;-68
2022/01/08 09:05:20;;;;;;;4.80;3.70;;;2.50;99.90;;;;;;5031193;28;20413;-68
2022/01/08 09:07:46;;;;;;;4.53;3.20;;;2.70;99.90;;;;;;5030252;28;20179;-68
2022/01/08 09:10:12;;;;;;;2.60;2.33;;;2.80;99.90;;;;;;5031416;28;20213;-68
2022/01/08 09:12:39;;;;;;;3.37;2.67;;;2.70;99.90;;;;;;5031275;28;20668;-68
2022/01/08 09:15:07;;;;;;;3.30;1.97;;;2.60;99.90;;;;;;5031150;28;20782;-68
2022/01/08 09:17:35;;;;;;;2.67;2.30;;;2.70;99.90;;;;;;5031487;28;20499;-68
2022/01/08 09:20:03;;;;;;;4.03;2.37;;;2.60;99.90;;;;;;5031473;28;20424;-68
2022/01/08 09:22:28;;;;;;;6.13;2.17;;;2.60;99.90;;;;;;5031304;28;20447;-68
2022/01/08 09:24:54;;;;;;;6.17;2.33;;;2.60;99.90;;;;;;5033475;28;20500;-67
2022/01/08 09:27:21;;;;;;;3.97;2.40;;;2.60;99.90;;;;;;5034530;28;20662;-68
2022/01/08 09:29:46;;;;;;;3.60;2.53;;;2.70;99.90;;;;;;5034854;28;20196;-68
2022/01/08 09:32:12;;;;;;;4.40;2.50;;;2.80;99.90;;;;;;5034763;28;20440;-68
2022/01/08 09:34:38;;;;;;;4.47;3.03;;;2.90;99.90;;;;;;5034843;28;20633;-69
2022/01/08 09:37:05;;;;;;;5.87;4.20;;;2.90;99.90;;;;;;5034400;28;20171;-68
2022/01/08 09:39:31;;;;;;;3.30;2.90;;;3.00;99.90;;;;;;5034664;28;20201;-68
2022/01/08 09:41:57;;;;;;;4.77;3.67;;;3.10;99.90;;;;;;5034282;28;20560;-68
2022/01/08 09:44:23;;;;;;;3.80;2.67;;;3.00;99.90;;;;;;5034540;28;20938;-68
2022/01/08 09:46:49;;;;;;;3.00;2.63;;;3.00;99.90;;;;;;5034120;28;20564;-67
2022/01/08 09:49:14;;;;;;;5.13;2.30;;;3.10;99.90;;;;;;5034325;28;20452;-68
2022/01/08 09:51:40;;;;;;;3.13;2.57;;;3.00;99.90;;;;;;5034251;28;20186;-68
2022/01/08 09:54:05;;;;;;;3.40;2.53;;;3.20;99.90;;;;;;5034372;28;20167;-68
2022/01/08 09:56:32;;;;;;;3.40;2.30;;;3.30;99.90;;;;;;5033933;28;20163;-68
2022/01/08 09:58:59;;;;;;;2.63;2.07;;;4.10;99.90;;;;;;5034272;28;20232;-68
2022/01/08 10:01:34;;;;;;;2.90;2.57;;;4.90;99.90;;;;;;5034577;28;20533;-67
2022/01/08 10:04:02;;;;;;;2.60;2.40;;;4.80;99.90;;;;;;5034264;28;20807;-70
2022/01/08 10:06:30;;;;;;;2.93;2.10;;;4.50;99.90;;;;;;5033854;28;20429;-70
2022/01/08 10:08:56;;;;;;;4.60;2.80;;;4.30;99.90;;;;;;5033914;28;20453;-70
2022/01/08 10:11:23;;;;;;;3.47;2.83;;;4.20;99.90;;;;;;5033928;28;20437;-69
2022/01/08 10:14:00;;;;;;;6.83;5.30;;;4.00;99.90;;;;;;5034059;28;20425;-69
2022/01/08 10:19:17;;;;;;;6.33;2.90;;;3.70;99.90;;;;;;5034167;28;20467;-70
2022/01/08 10:21:44;;;;;;;5.63;3.40;;;3.60;99.90;;;;;;5033753;28;20441;-70
2022/01/08 10:24:10;;;;;;;5.50;2.70;;;3.50;99.90;;;;;;5032568;28;20957;-69
2022/01/08 10:26:40;;;;;;;6.60;4.13;;;3.40;99.90;;;;;;5033451;28;20468;-69
2022/01/08 10:29:19;;;;;;;3.37;2.53;;;3.30;99.90;;;;;;5033772;28;20567;-69
2022/01/08 10:31:48;;;;;;;2.77;2.20;;;3.20;99.90;;;;;;5033608;28;20437;-69
2022/01/08 10:34:17;;;;;;;3.37;2.43;;;3.10;99.90;;;;;;5033176;28;20425;-70
2022/01/08 10:36:47;;;;;;;4.97;2.47;;;3.00;99.90;;;;;;5033099;28;20482;-69
2022/01/08 10:39:20;;;;;;;5.83;3.03;;;3.00;99.90;;;;;;5033539;28;20421;-69
2022/01/08 10:41:47;;;;;;;8.73;5.73;;;3.00;99.90;;;;;;5033243;28;20960;-69
2022/01/08 10:44:22;;;;;;;5.37;2.03;;;3.10;99.90;;;;;;5033450;28;20429;-69
2022/01/08 10:46:56;;;;;;;4.20;3.10;;;3.20;99.90;;;;;;5033077;28;20440;-69
2022/01/08 10:49:38;;;;;;;2.50;2.30;;;3.20;99.90;;;;;;5031967;28;20463;-70
2022/01/08 10:52:09;;;;;;;3.20;1.80;;;3.30;99.90;;;;;;5033186;28;20528;-69
2022/01/08 10:54:41;;;;;;;2.60;2.13;;;3.20;99.90;;;;;;5033131;28;20421;-70
2022/01/08 10:57:08;;;;;;;4.33;2.00;;;3.50;99.90;;;;;;5032865;28;20834;-69
2022/01/08 10:59:36;;;;;;;3.50;2.23;;;3.70;99.90;;;;;;5031812;28;20516;-69
2022/01/08 11:02:12;;;;;;;7.47;2.23;;;3.80;99.90;;;;;;5033064;28;20440;-69
2022/01/08 11:04:43;;;;;;;3.10;2.17;;;4.10;99.90;;;;;;5032975;28;20462;-69
2022/01/08 11:07:14;;;;;;;3.17;2.50;;;4.10;99.90;;;;;;5032819;28;20428;-69
2022/01/08 11:09:42;;;;;;;3.97;2.63;;;4.10;99.90;;;;;;5032948;28;20460;-69
2022/01/08 11:12:12;;;;;;;3.93;1.90;;;4.40;99.90;;;;;;5032743;28;20437;-69
2022/01/08 11:17:34;;;;;;;5.93;2.33;;;8.90;99.90;;;;;;5032591;28;20939;-69
2022/01/08 11:20:15;;;;;;;4.60;3.00;;;11.20;99.90;;;;;;5032683;28;20417;-69
2022/01/08 11:22:43;;;;;;;5.23;2.00;;;10.30;99.90;;;;;;5032711;28;20475;-69
2022/01/08 11:25:16;;;;;;;4.87;2.37;;;8.40;99.90;;;;;;5032390;28;20777;-68
2022/01/08 11:28:01;;;;;;;6.23;2.33;;;6.70;99.90;;;;;;5032534;28;20914;-69
2022/01/08 11:30:30;;;;;;;2.50;1.63;;;5.90;99.90;;;;;;5032481;28;21049;-69
2022/01/08 11:33:01;;;;;;;3.57;2.13;;;6.30;99.90;;;;;;5032514;28;20500;-69
2022/01/08 11:35:27;;;;;;;3.00;1.97;;;7.60;99.90;;;;;;5031917;28;20421;-70
2022/01/08 11:37:56;;;;;;;3.23;1.60;;;9.00;99.90;;;;;;5032351;28;20470;-69
2022/01/08 11:40:24;;;;;;;8.13;2.03;;;8.80;99.90;;;;;;5032346;28;20425;-69
2022/01/08 11:42:50;;;;;;;12.00;2.20;;;8.30;99.90;;;;;;5032295;28;20860;-69
2022/01/08 11:45:30;;;;;;;6.20;3.90;;;7.80;99.90;;;;;;5032100;28;20558;-68
2022/01/08 11:47:59;;;;;;;11.13;6.30;;;7.20;99.90;;;;;;5031469;28;20949;-69
2022/01/08 11:50:27;;;;;;;3.10;2.27;;;6.80;99.90;;;;;;5032177;28;20958;-68
2022/01/08 11:53:22;;;;;;;5.57;3.27;;;6.30;99.90;;;;;;5032151;28;20595;-69
2022/01/08 11:55:57;;;;;;;2.20;1.70;;;5.80;99.90;;;;;;5031921;28;20421;-68
2022/01/08 11:58:30;;;;;;;4.83;2.70;;;5.50;99.90;;;;;;5032080;28;20503;-69
2022/01/08 12:01:10;;;;;;;6.93;1.73;;;5.30;99.90;;;;;;5032106;28;20479;-68
2022/01/08 12:03:47;;;;;;;3.60;1.83;;;5.50;99.90;;;;;;5032181;28;20417;-68
2022/01/08 12:06:23;;;;;;;2.47;1.80;;;6.60;99.90;;;;;;5031849;28;20736;-69
2022/01/08 12:09:07;;;;;;;3.47;1.53;;;6.70;99.90;;;;;;5031868;28;20453;-68
2022/01/08 12:11:51;;;;;;;5.93;3.00;;;5.90;99.90;;;;;;5032058;28;20524;-68
2022/01/08 12:14:24;;;;;;;4.50;2.37;;;5.40;99.90;;;;;;5032002;28;20417;-68
2022/01/08 12:16:52;;;;;;;4.33;2.97;;;5.00;99.90;;;;;;5031707;28;20799;-69
2022/01/08 12:19:38;;;;;;;3.97;2.47;;;5.60;99.90;;;;;;5031870;28;20486;-69
2022/01/08 12:22:16;;;;;;;2.63;1.47;;;5.60;99.90;;;;;;5031779;28;20444;-68
2022/01/08 12:24:42;;;;;;;4.93;1.97;;;5.50;99.90;;;;;;5031795;28;20432;-69
2022/01/08 12:27:34;;;;;;;2.63;1.80;;;5.30;99.90;;;;;;5031625;28;20421;-69
2022/01/08 12:30:23;;;;;;;4.60;2.17;;;4.90;99.90;;;;;;5031629;28;20850;-68
2022/01/08 12:32:52;;;;;;;4.13;2.47;;;4.60;99.90;;;;;;5027702;28;20475;-68
2022/01/08 12:35:38;;;;;;;5.80;2.50;;;4.30;99.90;;;;;;5031536;28;20428;-68
2022/01/08 12:38:23;;;;;;;3.30;2.37;;;4.30;99.90;;;;;;5031676;28;20440;-69
2022/01/08 12:40:49;;;;;;;2.43;2.07;;;4.80;99.90;;;;;;5031568;28;20503;-68
2022/01/08 12:43:37;;;;;;;3.33;3.03;;;6.50;99.90;;;;;;5031644;28;20914;-69
2022/01/08 12:46:24;;;;;;;2.33;1.73;;;7.90;99.90;;;;;;5031336;28;20436;-68
2022/01/08 12:49:08;;;;;;;4.07;1.60;;;9.80;99.90;;;;;;5031572;28;21044;-68
2022/01/08 12:51:50;;;;;;;3.23;1.67;;;11.90;99.90;;;;;;5031556;28;20440;-68
2022/01/08 12:54:18;;;;;;;3.63;1.50;;;12.70;98.80;;;;;;5031644;28;20413;-69
2022/01/08 12:56:55;;;;;;;2.97;1.90;;;13.00;97.20;;;;;;5031218;28;20424;-68
2022/01/08 12:59:28;;;;;;;2.63;2.43;;;13.10;96.10;;;;;;5034874;28;20427;-68
2022/01/08 13:01:54;;;;;;;1.77;1.67;;;13.10;93.90;;;;;;5035312;28;20498;-68
2022/01/08 13:04:22;;;;;;;2.40;1.83;;;11.90;95.80;;;;;;5035425;28;20775;-68
2022/01/08 13:06:48;;;;;;;2.87;2.57;;;11.20;97.80;;;;;;5035052;28;20511;-68
2022/01/08 13:09:13;;;;;;;2.27;1.60;;;9.80;99.90;;;;;;5035128;28;20547;-68
2022/01/08 13:11:41;;;;;;;3.50;2.00;;;8.20;99.90;;;;;;5035072;28;20191;-68
2022/01/08 13:14:16;;;;;;;2.03;1.83;;;7.00;99.90;;;;;;5035123;28;20171;-68
2022/01/08 13:16:44;;;;;;;4.10;2.00;;;6.20;99.90;;;;;;5034856;28;20416;-68
2022/01/08 13:19:15;;;;;;;2.43;1.97;;;5.50;99.90;;;;;;5035047;28;20844;-68
2022/01/08 13:21:48;;;;;;;2.33;2.00;;;5.10;99.90;;;;;;5034771;28;20444;-68
2022/01/08 13:24:18;;;;;;;3.50;2.20;;;5.10;99.90;;;;;;5034996;28;20417;-68
2022/01/08 13:26:50;;;;;;;5.87;2.07;;;5.20;99.90;;;;;;5034633;28;20798;-68